createdAt,value
2019-03-22T00:00:00.361Z,40.71
2019-03-22T00:01:00.249Z,40.49
2019-03-22T00:02:00.243Z,40.61
2019-03-22T00:03:00.238Z,40.65
2019-03-22T00:04:00.233Z,40.50
2019-03-22T00:05:00.375Z,41.48
2019-03-22T00:06:00.226Z,40.54
2019-03-22T00:07:00.211Z,40.46
2019-03-22T00:08:00.207Z,40.55
2019-03-22T00:09:00.204Z,40.48
2019-03-22T00:10:00.367Z,40.52
2019-03-22T00:11:00.187Z,40.75
2019-03-22T00:12:00.180Z,40.51
2019-03-22T00:13:00.181Z,40.57
2019-03-22T00:14:00.172Z,40.59
2019-03-22T00:15:00.362Z,40.48
2019-03-22T00:16:00.156Z,40.62
2019-03-22T00:17:00.149Z,40.98
2019-03-22T00:18:00.141Z,40.57
2019-03-22T00:19:00.135Z,40.60
2019-03-22T00:20:00.198Z,40.56
2019-03-22T00:21:00.123Z,40.65
2019-03-22T00:22:00.116Z,40.88
2019-03-22T00:23:00.112Z,40.69
2019-03-22T00:24:00.103Z,40.63
2019-03-22T00:25:00.158Z,40.53
2019-03-22T00:26:00.100Z,40.83
2019-03-22T00:27:00.094Z,40.72
2019-03-22T00:28:00.086Z,40.63
2019-03-22T00:29:00.087Z,40.54
2019-03-22T00:30:00.127Z,40.57
2019-03-22T00:31:00.068Z,40.58
2019-03-22T00:32:00.061Z,40.56
2019-03-22T00:33:00.054Z,40.48
2019-03-22T00:34:00.048Z,40.45
2019-03-22T00:35:00.040Z,40.48
2019-03-22T00:36:00.037Z,40.74
2019-03-22T00:37:00.029Z,40.42
2019-03-22T00:38:00.022Z,40.63
2019-03-22T00:39:00.016Z,40.47
2019-03-22T00:40:00.009Z,40.50
2019-03-22T00:41:00.001Z,40.44
2019-03-22T00:42:00.003Z,40.75
2019-03-22T00:42:59.992Z,40.46
2019-03-22T00:43:59.984Z,40.40
2019-03-22T00:44:59.977Z,40.55
2019-03-22T00:45:59.970Z,40.40
2019-03-22T00:46:59.964Z,40.46
2019-03-22T00:47:59.958Z,40.57
2019-03-22T00:48:59.952Z,40.76
2019-03-22T00:49:59.943Z,40.78
2019-03-22T00:50:59.938Z,40.74
2019-03-22T00:51:59.931Z,40.79
2019-03-22T00:52:59.948Z,41.12
2019-03-22T00:53:59.942Z,40.63
2019-03-22T00:54:59.933Z,40.64
2019-03-22T00:55:59.979Z,40.97
2019-03-22T00:56:59.921Z,40.70
2019-03-22T00:57:59.939Z,40.57
2019-03-22T00:58:59.944Z,41.18
2019-03-22T00:59:59.927Z,40.58
2019-03-22T01:00:59.918Z,40.79
2019-03-22T01:01:59.913Z,40.65
2019-03-22T01:02:59.904Z,40.69
2019-03-22T01:03:59.900Z,40.58
2019-03-22T01:04:59.899Z,40.60
2019-03-22T01:05:59.890Z,40.64
2019-03-22T01:06:59.884Z,40.64
2019-03-22T01:07:59.879Z,40.62
2019-03-22T01:08:59.868Z,40.57
2019-03-22T01:09:59.864Z,40.85
2019-03-22T01:10:59.859Z,40.66
2019-03-22T01:11:59.851Z,40.63
2019-03-22T01:12:59.896Z,40.73
2019-03-22T01:13:59.839Z,40.64
2019-03-22T01:14:59.834Z,40.68
2019-03-22T01:15:59.827Z,40.70
2019-03-22T01:16:59.820Z,40.72
2019-03-22T01:17:59.818Z,40.64
2019-03-22T01:18:59.805Z,40.65
2019-03-22T01:19:59.803Z,40.68
2019-03-22T01:20:59.796Z,40.79
2019-03-22T01:21:59.791Z,40.68
2019-03-22T01:22:59.782Z,40.71
2019-03-22T01:24:00.095Z,40.68
2019-03-22T01:24:59.769Z,40.65
2019-03-22T01:25:59.763Z,40.54
2019-03-22T01:26:59.756Z,40.55
2019-03-22T01:27:59.748Z,40.67
2019-03-22T01:28:59.743Z,40.56
2019-03-22T01:29:59.736Z,40.52
2019-03-22T01:30:59.730Z,40.57
2019-03-22T01:31:59.724Z,40.47
2019-03-22T01:32:59.718Z,40.55
2019-03-22T01:33:59.711Z,40.51
2019-03-22T01:34:59.701Z,40.62
2019-03-22T01:35:59.695Z,40.50
2019-03-22T01:36:59.698Z,40.48
2019-03-22T01:37:59.680Z,40.64
2019-03-22T01:38:59.673Z,40.40
2019-03-22T01:39:59.669Z,40.72
2019-03-22T01:40:59.665Z,40.46
2019-03-22T01:41:59.654Z,40.54
2019-03-22T01:42:59.647Z,41.55
2019-03-22T01:43:59.641Z,40.45
2019-03-22T01:44:59.632Z,40.45
2019-03-22T01:45:59.625Z,40.42
2019-03-22T01:46:59.619Z,40.54
2019-03-22T01:47:59.612Z,40.60
2019-03-22T01:48:59.604Z,40.47
2019-03-22T01:49:59.605Z,40.62
2019-03-22T01:50:59.590Z,40.62
2019-03-22T01:51:59.585Z,40.52
2019-03-22T01:52:59.580Z,40.47
2019-03-22T01:53:59.575Z,40.64
2019-03-22T01:54:59.568Z,40.64
2019-03-22T01:55:59.562Z,40.55
2019-03-22T01:56:59.555Z,40.49
2019-03-22T01:57:59.549Z,40.53
2019-03-22T01:58:59.544Z,40.56
2019-03-22T01:59:59.534Z,40.51
2019-03-22T02:00:59.528Z,40.71
2019-03-22T02:01:59.572Z,40.53
2019-03-22T02:02:59.516Z,40.61
2019-03-22T02:03:59.507Z,40.49
2019-03-22T02:04:59.502Z,40.54
2019-03-22T02:05:59.496Z,40.56
2019-03-22T02:06:59.490Z,40.67
2019-03-22T02:07:59.487Z,40.51
2019-03-22T02:08:59.476Z,40.55
2019-03-22T02:09:59.470Z,40.53
2019-03-22T02:10:59.464Z,40.57
2019-03-22T02:11:59.457Z,40.54
2019-03-22T02:12:59.451Z,40.83
2019-03-22T02:13:59.443Z,40.56
2019-03-22T02:14:59.438Z,40.57
2019-03-22T02:15:59.431Z,40.54
2019-03-22T02:16:59.423Z,40.56
2019-03-22T02:17:59.416Z,40.54
2019-03-22T02:18:59.410Z,40.50
2019-03-22T02:19:59.404Z,40.52
2019-03-22T02:20:59.395Z,40.53
2019-03-22T02:21:59.390Z,40.67
2019-03-22T02:22:59.381Z,40.52
2019-03-22T02:23:59.374Z,40.54
2019-03-22T02:24:59.372Z,40.52
2019-03-22T02:25:59.366Z,40.54
2019-03-22T02:26:59.358Z,40.62
2019-03-22T02:28:04.107Z,40.80
2019-03-22T02:28:59.344Z,40.53
2019-03-22T02:29:59.337Z,40.55
2019-03-22T02:30:59.337Z,40.64
2019-03-22T02:31:59.324Z,40.55
2019-03-22T02:32:59.315Z,40.53
2019-03-22T02:33:59.313Z,40.53
2019-03-22T02:34:59.300Z,40.56
2019-03-22T02:35:59.305Z,40.69
2019-03-22T02:36:59.304Z,40.59
2019-03-22T02:37:59.283Z,40.69
2019-03-22T02:38:59.274Z,40.55
2019-03-22T02:39:59.268Z,40.49
2019-03-22T02:40:59.262Z,40.47
2019-03-22T02:41:59.277Z,40.48
2019-03-22T02:42:59.274Z,40.58
2019-03-22T02:43:59.260Z,40.94
2019-03-22T02:44:59.253Z,41.11
2019-03-22T02:45:59.246Z,40.43
2019-03-22T02:46:59.243Z,40.86
2019-03-22T02:47:59.258Z,40.76
2019-03-22T02:48:59.232Z,40.47
2019-03-22T02:49:59.225Z,40.48
2019-03-22T02:50:59.217Z,40.46
2019-03-22T02:51:59.220Z,40.44
2019-03-22T02:52:59.201Z,40.40
2019-03-22T02:53:59.195Z,40.41
2019-03-22T02:54:59.191Z,40.40
2019-03-22T02:55:59.226Z,40.47
2019-03-22T02:56:59.174Z,40.54
2019-03-22T02:57:59.172Z,40.52
2019-03-22T02:58:59.540Z,41.27
2019-03-22T02:59:59.161Z,40.50
2019-03-22T03:00:59.149Z,40.55
2019-03-22T03:01:59.143Z,40.58
2019-03-22T03:02:59.136Z,40.57
2019-03-22T03:03:59.130Z,40.60
2019-03-22T03:04:59.135Z,40.60
2019-03-22T03:05:59.118Z,40.54
2019-03-22T03:06:59.111Z,40.50
2019-03-22T03:07:59.110Z,40.68
2019-03-22T03:08:59.098Z,40.57
2019-03-22T03:09:59.190Z,40.67
2019-03-22T03:10:59.084Z,40.61
2019-03-22T03:11:59.075Z,40.69
2019-03-22T03:12:59.076Z,40.70
2019-03-22T03:13:59.062Z,40.65
2019-03-22T03:14:59.058Z,40.56
2019-03-22T03:15:59.051Z,40.63
2019-03-22T03:16:59.043Z,40.67
2019-03-22T03:17:59.040Z,40.86
2019-03-22T03:18:59.026Z,40.69
2019-03-22T03:19:59.041Z,40.74
2019-03-22T03:20:59.021Z,41.28
2019-03-22T03:21:59.034Z,40.65
2019-03-22T03:22:59.003Z,40.70
2019-03-22T03:23:58.998Z,40.71
2019-03-22T03:24:58.990Z,41.15
2019-03-22T03:25:58.989Z,40.62
2019-03-22T03:26:58.976Z,40.58
2019-03-22T03:27:58.980Z,40.65
2019-03-22T03:28:58.969Z,40.82
2019-03-22T03:29:58.962Z,40.75
2019-03-22T03:30:58.982Z,40.62
2019-03-22T03:31:58.977Z,40.64
2019-03-22T03:32:58.977Z,40.80
2019-03-22T03:33:58.969Z,40.81
2019-03-22T03:34:58.962Z,40.77
2019-03-22T03:35:58.955Z,41.26
2019-03-22T03:36:58.949Z,40.97
2019-03-22T03:37:58.946Z,40.82
2019-03-22T03:38:58.935Z,40.60
2019-03-22T03:39:58.929Z,40.61
2019-03-22T03:40:58.922Z,40.70
2019-03-22T03:41:58.914Z,40.82
2019-03-22T03:42:58.910Z,41.11
2019-03-22T03:43:58.906Z,40.89
2019-03-22T03:44:58.902Z,40.63
2019-03-22T03:45:58.891Z,40.72
2019-03-22T03:46:58.885Z,40.79
2019-03-22T03:47:58.879Z,40.86
2019-03-22T03:48:58.872Z,40.78
2019-03-22T03:49:58.865Z,40.97
2019-03-22T03:50:58.860Z,40.89
2019-03-22T03:51:58.854Z,40.88
2019-03-22T03:52:58.854Z,40.82
2019-03-22T03:53:58.839Z,40.80
2019-03-22T03:54:58.840Z,40.70
2019-03-22T03:55:58.828Z,40.66
2019-03-22T03:56:58.823Z,40.83
2019-03-22T03:57:58.848Z,40.82
2019-03-22T03:58:58.807Z,40.65
2019-03-22T03:59:58.810Z,40.75
2019-03-22T04:00:58.803Z,40.74
2019-03-22T04:01:58.788Z,40.70
2019-03-22T04:02:58.783Z,40.97
2019-03-22T04:03:58.785Z,40.71
2019-03-22T04:04:58.767Z,40.64
2019-03-22T04:05:58.766Z,40.71
2019-03-22T04:06:58.754Z,41.16
2019-03-22T04:07:58.749Z,40.92
2019-03-22T04:08:58.742Z,40.79
2019-03-22T04:09:58.742Z,40.68
2019-03-22T04:10:58.732Z,40.96
2019-03-22T04:11:58.727Z,40.83
2019-03-22T04:12:58.718Z,40.67
2019-03-22T04:13:58.717Z,40.77
2019-03-22T04:14:58.758Z,41.27
2019-03-22T04:15:58.708Z,40.96
2019-03-22T04:16:58.692Z,40.93
2019-03-22T04:17:58.688Z,41.04
2019-03-22T04:18:58.683Z,41.40
2019-03-22T04:19:58.677Z,41.11
2019-03-22T04:20:58.667Z,41.16
2019-03-22T04:21:58.662Z,41.45
2019-03-22T04:22:58.662Z,40.82
2019-03-22T04:23:58.646Z,40.86
2019-03-22T04:24:58.641Z,40.65
2019-03-22T04:25:58.636Z,40.89
2019-03-22T04:26:58.631Z,41.08
2019-03-22T04:27:58.650Z,40.68
2019-03-22T04:29:07.434Z,41.35
2019-03-22T04:31:26.391Z,40.88
2019-03-22T04:32:26.405Z,41.36
2019-03-22T04:33:26.395Z,41.05
2019-03-22T04:34:26.392Z,41.09
2019-03-22T04:35:26.385Z,41.06
2019-03-22T04:36:26.378Z,41.19
2019-03-22T04:37:26.379Z,41.21
2019-03-22T04:38:26.366Z,40.97
2019-03-22T04:39:26.358Z,41.26
2019-03-22T04:40:26.351Z,41.22
2019-03-22T04:41:26.352Z,41.42
2019-03-22T04:42:26.338Z,41.64
2019-03-22T04:43:26.331Z,41.37
2019-03-22T04:44:26.326Z,41.74
2019-03-22T04:45:26.318Z,41.73
2019-03-22T04:46:26.313Z,41.08
2019-03-22T04:47:26.306Z,41.30
2019-03-22T04:48:26.297Z,40.88
2019-03-22T04:49:26.292Z,41.22
2019-03-22T04:50:26.287Z,41.27
2019-03-22T04:51:26.280Z,41.34
2019-03-22T04:52:26.273Z,41.53
2019-03-22T04:53:26.266Z,41.60
2019-03-22T04:54:26.262Z,40.99
2019-03-22T04:55:26.254Z,40.68
2019-03-22T04:56:26.249Z,41.05
2019-03-22T04:57:26.252Z,40.58
2019-03-22T04:58:26.240Z,41.14
2019-03-22T04:59:26.231Z,40.97
2019-03-22T05:00:26.229Z,40.78
2019-03-22T05:01:26.224Z,40.90
2019-03-22T05:02:26.214Z,40.76
2019-03-22T05:03:26.231Z,40.96
2019-03-22T05:04:26.202Z,40.98
2019-03-22T05:05:26.193Z,40.71
2019-03-22T05:06:26.188Z,41.16
2019-03-22T05:07:26.186Z,40.53
2019-03-22T05:08:26.178Z,41.74
2019-03-22T05:09:26.176Z,41.24
2019-03-22T05:10:26.167Z,41.32
2019-03-22T05:11:26.158Z,41.24
2019-03-22T05:12:26.156Z,40.81
2019-03-22T05:13:26.148Z,40.72
2019-03-22T05:14:26.142Z,40.70
2019-03-22T05:15:26.132Z,41.06
2019-03-22T05:16:26.128Z,41.22
2019-03-22T05:17:26.122Z,40.78
2019-03-22T05:18:26.118Z,41.47
2019-03-22T05:19:26.112Z,41.03
2019-03-22T05:20:26.099Z,40.85
2019-03-22T05:21:26.093Z,41.78
2019-03-22T05:22:26.087Z,41.85
2019-03-22T05:23:26.086Z,41.00
2019-03-22T05:24:26.075Z,41.04
2019-03-22T05:25:26.070Z,40.84
2019-03-22T05:26:26.063Z,41.39
2019-03-22T05:27:26.052Z,41.03
2019-03-22T05:28:26.046Z,41.35
2019-03-22T05:29:30.554Z,41.55
2019-03-22T05:30:26.032Z,40.91
2019-03-22T05:31:26.028Z,41.03
2019-03-22T05:32:26.022Z,40.62
2019-03-22T05:33:26.013Z,40.88
2019-03-22T05:34:26.009Z,40.68
2019-03-22T05:35:25.999Z,41.55
2019-03-22T05:36:26.017Z,41.13
2019-03-22T05:37:26.013Z,40.79
2019-03-22T05:38:26.004Z,41.17
2019-03-22T05:39:26.000Z,41.65
2019-03-22T05:40:25.993Z,41.12
2019-03-22T05:41:25.986Z,40.86
2019-03-22T05:42:25.983Z,41.45
2019-03-22T05:43:25.976Z,41.09
2019-03-22T05:44:25.972Z,41.22
2019-03-22T05:45:25.964Z,40.71
2019-03-22T05:46:25.957Z,41.56
2019-03-22T05:47:25.952Z,41.87
2019-03-22T05:48:25.945Z,40.22
2019-03-22T05:49:25.939Z,40.64
2019-03-22T05:50:25.932Z,40.59
2019-03-22T05:51:25.922Z,41.22
2019-03-22T05:52:25.918Z,40.75
2019-03-22T05:53:25.912Z,41.00
2019-03-22T05:54:25.917Z,40.78
2019-03-22T05:55:25.911Z,40.87
2019-03-22T05:56:25.902Z,40.98
2019-03-22T05:57:25.896Z,40.80
2019-03-22T05:58:25.891Z,40.93
2019-03-22T05:59:25.891Z,40.76
2019-03-22T06:00:25.878Z,41.97
2019-03-22T06:01:25.877Z,41.92
2019-03-22T06:02:25.865Z,40.96
2019-03-22T06:03:25.860Z,42.12
2019-03-22T06:04:25.853Z,41.90
2019-03-22T06:05:25.847Z,40.73
2019-03-22T06:06:25.839Z,40.62
2019-03-22T06:07:25.833Z,41.09
2019-03-22T06:08:25.831Z,40.58
2019-03-22T06:09:25.824Z,41.90
2019-03-22T06:10:25.814Z,41.43
2019-03-22T06:11:25.809Z,41.58
2019-03-22T06:12:25.802Z,40.74
2019-03-22T06:13:25.795Z,41.19
2019-03-22T06:14:25.793Z,40.72
2019-03-22T06:15:25.786Z,41.19
2019-03-22T06:16:25.773Z,41.47
2019-03-22T06:17:25.770Z,41.17
2019-03-22T06:18:25.763Z,41.49
2019-03-22T06:19:25.758Z,40.80
2019-03-22T06:20:25.751Z,40.60
2019-03-22T06:21:25.750Z,41.91
2019-03-22T06:22:25.734Z,41.44
2019-03-22T06:23:25.729Z,41.38
2019-03-22T06:24:25.724Z,41.27
2019-03-22T06:25:25.717Z,40.88
2019-03-22T06:26:25.710Z,41.35
2019-03-22T06:27:25.706Z,40.86
2019-03-22T06:28:25.696Z,41.43
2019-03-22T06:29:25.708Z,41.20
2019-03-22T06:30:25.688Z,43.48
2019-03-22T06:31:25.680Z,41.68
2019-03-22T06:32:25.673Z,41.10
2019-03-22T06:33:25.669Z,40.91
2019-03-22T06:34:25.662Z,40.85
2019-03-22T06:35:25.656Z,40.54
2019-03-22T06:36:25.648Z,41.80
2019-03-22T06:37:25.649Z,40.61
2019-03-22T06:38:25.635Z,40.42
2019-03-22T06:39:25.629Z,40.88
2019-03-22T06:40:25.628Z,40.91
2019-03-22T06:41:25.617Z,41.15
2019-03-22T06:42:25.608Z,41.33
2019-03-22T06:43:25.602Z,41.39
2019-03-22T06:44:25.595Z,41.59
2019-03-22T06:45:25.599Z,42.14
2019-03-22T06:46:25.633Z,41.00
2019-03-22T06:47:25.575Z,41.31
2019-03-22T06:48:25.587Z,41.20
2019-03-22T06:49:25.582Z,40.94
2019-03-22T06:50:25.579Z,41.10
2019-03-22T06:51:25.571Z,41.95
2019-03-22T06:52:25.563Z,41.23
2019-03-22T06:53:25.559Z,40.96
2019-03-22T06:54:31.595Z,41.04
2019-03-22T06:56:53.322Z,41.09
2019-03-22T06:57:53.312Z,42.36
2019-03-22T06:58:53.312Z,41.19
2019-03-22T07:00:01.480Z,41.48
2019-03-22T07:02:21.013Z,41.51
2019-03-22T07:03:21.003Z,41.67
2019-03-22T07:04:20.997Z,41.62
2019-03-22T07:05:20.992Z,40.76
2019-03-22T07:06:20.987Z,40.84
2019-03-22T07:07:20.980Z,40.83
2019-03-22T07:08:20.973Z,41.79
2019-03-22T07:09:20.965Z,41.01
2019-03-22T07:10:20.959Z,41.66
2019-03-22T07:11:20.952Z,41.12
2019-03-22T07:12:20.949Z,40.78
2019-03-22T07:13:20.937Z,40.59
2019-03-22T07:14:20.930Z,41.15
2019-03-22T07:15:20.922Z,40.70
2019-03-22T07:16:20.921Z,40.76
2019-03-22T07:17:20.909Z,40.36
2019-03-22T07:18:20.902Z,40.70
2019-03-22T07:19:20.894Z,41.68
2019-03-22T07:20:20.887Z,40.85
2019-03-22T07:21:20.881Z,41.20
2019-03-22T07:22:20.873Z,41.26
2019-03-22T07:23:20.866Z,40.97
2019-03-22T07:24:20.859Z,40.88
2019-03-22T07:25:20.852Z,41.06
2019-03-22T07:26:20.848Z,40.61
2019-03-22T07:27:20.839Z,40.83
2019-03-22T07:28:20.832Z,40.31
2019-03-22T07:29:20.828Z,41.11
2019-03-22T07:30:20.820Z,40.63
2019-03-22T07:31:20.812Z,40.60
2019-03-22T07:32:20.807Z,40.88
2019-03-22T07:33:20.802Z,41.19
2019-03-22T07:34:20.796Z,40.60
2019-03-22T07:35:20.786Z,40.29
2019-03-22T07:36:20.780Z,40.69
2019-03-22T07:37:20.773Z,40.57
2019-03-22T07:38:20.790Z,40.76
2019-03-22T07:39:20.785Z,41.36
2019-03-22T07:40:20.773Z,41.56
2019-03-22T07:41:20.767Z,41.47
2019-03-22T07:42:20.765Z,41.27
2019-03-22T07:43:20.764Z,40.81
2019-03-22T07:44:20.750Z,40.43
2019-03-22T07:45:20.744Z,40.33
2019-03-22T07:46:20.735Z,40.18
2019-03-22T07:47:20.735Z,40.73
2019-03-22T07:48:20.723Z,40.40
2019-03-22T07:49:20.712Z,41.35
2019-03-22T07:50:20.708Z,40.93
2019-03-22T07:51:20.701Z,41.00
2019-03-22T07:52:20.710Z,40.44
2019-03-22T07:53:20.705Z,40.35
2019-03-22T07:54:20.702Z,40.92
2019-03-22T07:55:20.691Z,40.62
2019-03-22T07:56:20.686Z,40.08
2019-03-22T07:57:20.680Z,40.52
2019-03-22T07:58:20.675Z,40.18
2019-03-22T07:59:20.668Z,40.41
2019-03-22T08:00:30.187Z,39.80
2019-03-22T08:02:48.399Z,44.17
2019-03-22T08:03:48.397Z,42.75
2019-03-22T08:04:48.387Z,45.16
2019-03-22T08:05:51.394Z,42.27
2019-03-22T08:06:48.371Z,42.99
2019-03-22T08:07:48.367Z,41.69
2019-03-22T08:08:48.360Z,40.73
2019-03-22T08:09:51.182Z,40.51
2019-03-22T08:10:48.358Z,41.67
2019-03-22T08:11:48.423Z,41.65
2019-03-22T08:12:48.349Z,41.56
2019-03-22T08:13:48.330Z,40.65
2019-03-22T08:14:48.326Z,41.10
2019-03-22T08:15:48.317Z,39.72
2019-03-22T08:16:48.320Z,40.20
2019-03-22T08:17:48.306Z,41.76
2019-03-22T08:18:48.298Z,41.78
2019-03-22T08:19:48.306Z,41.91
2019-03-22T08:20:48.288Z,40.96
2019-03-22T08:21:48.307Z,40.45
2019-03-22T08:22:48.287Z,39.82
2019-03-22T08:23:48.267Z,39.59
2019-03-22T08:24:48.264Z,41.06
2019-03-22T08:25:48.259Z,42.01
2019-03-22T08:26:48.251Z,41.73
2019-03-22T08:27:48.264Z,40.56
2019-03-22T08:28:48.276Z,39.86
2019-03-22T08:29:48.263Z,40.01
2019-03-22T08:30:48.250Z,42.34
2019-03-22T08:31:48.255Z,41.40
2019-03-22T08:32:50.456Z,43.69
2019-03-22T08:33:48.232Z,42.48
2019-03-22T08:34:48.228Z,40.25
2019-03-22T08:35:48.218Z,41.92
2019-03-22T08:36:48.211Z,38.78
2019-03-22T08:37:52.864Z,38.50
2019-03-22T08:38:48.195Z,38.90
2019-03-22T08:39:48.190Z,38.95
2019-03-22T08:40:48.188Z,40.31
2019-03-22T08:41:48.177Z,39.15
2019-03-22T08:42:48.172Z,38.98
2019-03-22T08:43:48.196Z,38.88
2019-03-22T08:44:48.165Z,39.25
2019-03-22T08:45:48.165Z,39.36
2019-03-22T08:46:48.175Z,39.21
2019-03-22T08:47:48.166Z,39.18
2019-03-22T08:48:48.137Z,40.00
2019-03-22T08:49:48.346Z,39.37
2019-03-22T08:50:48.167Z,39.17
2019-03-22T08:51:49.685Z,39.02
2019-03-22T08:52:48.111Z,39.64
2019-03-22T08:53:55.010Z,39.51
2019-03-22T08:56:15.831Z,39.62
2019-03-22T08:57:15.822Z,39.63
2019-03-22T08:58:18.323Z,39.38
2019-03-22T08:59:15.859Z,41.08
2019-03-22T09:00:15.824Z,39.28
2019-03-22T09:01:15.796Z,41.16
2019-03-22T09:02:15.837Z,40.81
2019-03-22T09:03:15.803Z,39.81
2019-03-22T09:04:15.796Z,40.44
2019-03-22T09:05:15.836Z,53.29
2019-03-22T09:06:15.766Z,40.59
2019-03-22T09:07:15.758Z,39.74
2019-03-22T09:08:16.205Z,41.11
2019-03-22T09:09:15.745Z,41.01
2019-03-22T09:10:15.754Z,44.26
2019-03-22T09:11:18.040Z,42.17
2019-03-22T09:12:15.732Z,40.63
2019-03-22T09:13:15.747Z,40.45
2019-03-22T09:14:15.803Z,40.76
2019-03-22T09:15:15.730Z,40.78
2019-03-22T09:16:15.723Z,41.77
2019-03-22T09:17:15.715Z,41.30
2019-03-22T09:18:15.900Z,41.89
2019-03-22T09:19:15.703Z,41.94
2019-03-22T09:20:15.702Z,47.04
2019-03-22T09:21:15.692Z,45.18
2019-03-22T09:22:15.686Z,45.45
2019-03-22T09:23:15.680Z,46.22
2019-03-22T09:24:15.674Z,44.53
2019-03-22T09:25:15.675Z,42.60
2019-03-22T09:26:15.695Z,41.48
2019-03-22T09:27:15.652Z,41.72
2019-03-22T09:28:15.649Z,43.51
2019-03-22T09:29:15.642Z,41.59
2019-03-22T09:30:15.637Z,41.53
2019-03-22T09:31:15.634Z,42.59
2019-03-22T09:32:15.653Z,43.24
2019-03-22T09:33:15.662Z,42.10
2019-03-22T09:34:15.644Z,43.80
2019-03-22T09:35:15.652Z,41.80
2019-03-22T09:36:15.613Z,41.78
2019-03-22T09:37:15.630Z,42.84
2019-03-22T09:38:15.636Z,42.13
2019-03-22T09:39:15.621Z,40.80
2019-03-22T09:40:15.648Z,40.35
2019-03-22T09:41:15.662Z,40.28
2019-03-22T09:42:15.599Z,40.61
2019-03-22T09:43:15.655Z,40.66
2019-03-22T09:44:15.587Z,40.18
2019-03-22T09:45:15.581Z,39.91
2019-03-22T09:46:15.598Z,41.13
2019-03-22T09:47:16.639Z,39.94
2019-03-22T09:48:15.601Z,40.10
2019-03-22T09:49:15.570Z,39.64
2019-03-22T09:50:15.595Z,39.78
2019-03-22T09:51:15.599Z,39.68
2019-03-22T09:52:15.586Z,39.95
2019-03-22T09:53:15.566Z,39.03
2019-03-22T09:54:15.592Z,39.48
2019-03-22T09:55:15.578Z,40.78
2019-03-22T09:56:15.564Z,39.29
2019-03-22T09:57:15.565Z,40.10
2019-03-22T09:58:15.578Z,39.82
2019-03-22T09:59:15.583Z,42.93
2019-03-22T10:00:15.683Z,41.81
2019-03-22T10:01:23.536Z,41.16
2019-03-22T10:03:43.307Z,39.79
2019-03-22T10:04:43.302Z,39.28
2019-03-22T10:05:43.297Z,39.24
2019-03-22T10:06:43.288Z,39.47
2019-03-22T10:07:43.365Z,39.35
2019-03-22T10:08:43.286Z,40.51
2019-03-22T10:09:43.290Z,39.69
2019-03-22T10:10:43.302Z,39.55
2019-03-22T10:11:43.294Z,41.99
2019-03-22T10:12:43.265Z,42.95
2019-03-22T10:13:43.304Z,39.98
2019-03-22T10:14:43.266Z,40.97
2019-03-22T10:15:43.253Z,40.56
2019-03-22T10:16:43.305Z,40.31
2019-03-22T10:17:43.236Z,40.64
2019-03-22T10:18:43.232Z,40.45
2019-03-22T10:19:43.221Z,40.51
2019-03-22T10:20:43.242Z,40.94
2019-03-22T10:21:43.209Z,42.65
2019-03-22T10:22:43.213Z,43.14
2019-03-22T10:23:43.203Z,43.53
2019-03-22T10:24:43.192Z,41.05
2019-03-22T10:25:43.196Z,41.57
2019-03-22T10:26:43.207Z,40.79
2019-03-22T10:27:43.203Z,42.01
2019-03-22T10:28:43.167Z,45.57
2019-03-22T10:29:43.161Z,46.78
2019-03-22T10:30:43.222Z,44.80
2019-03-22T10:31:43.148Z,40.85
2019-03-22T10:32:43.156Z,41.18
2019-03-22T10:33:43.134Z,41.97
2019-03-22T10:34:43.129Z,41.56
2019-03-22T10:35:43.491Z,42.08
2019-03-22T10:36:43.123Z,41.90
2019-03-22T10:37:43.201Z,42.29
2019-03-22T10:38:43.157Z,42.70
2019-03-22T10:39:43.117Z,45.37
2019-03-22T10:40:43.101Z,41.76
2019-03-22T10:41:43.096Z,41.35
2019-03-22T10:42:43.218Z,41.57
2019-03-22T10:43:43.144Z,41.15
2019-03-22T10:44:43.080Z,41.13
2019-03-22T10:45:43.079Z,41.52
2019-03-22T10:46:43.072Z,42.06
2019-03-22T10:47:43.066Z,41.83
2019-03-22T10:48:43.058Z,42.36
2019-03-22T10:49:43.061Z,41.82
2019-03-22T10:50:43.046Z,41.21
2019-03-22T10:51:55.743Z,42.52
2019-03-22T10:54:10.791Z,41.82
2019-03-22T10:55:28.360Z,41.74
2019-03-22T10:57:40.332Z,44.51
2019-03-22T10:58:38.496Z,43.43
2019-03-22T10:59:38.491Z,44.12
2019-03-22T11:00:38.484Z,44.40
2019-03-22T11:01:48.556Z,43.80
2019-03-22T11:05:06.200Z,44.29
2019-03-22T11:06:06.196Z,43.21
2019-03-22T11:07:06.187Z,41.47
2019-03-22T11:08:06.180Z,41.88
2019-03-22T11:09:06.174Z,42.23
2019-03-22T11:10:06.169Z,41.59
2019-03-22T11:11:06.161Z,41.25
2019-03-22T11:12:12.173Z,42.26
2019-03-22T11:14:33.871Z,43.36
2019-03-22T11:15:33.866Z,43.16
2019-03-22T11:16:33.859Z,41.41
2019-03-22T11:17:33.854Z,41.27
2019-03-22T11:18:37.581Z,41.15
2019-03-22T11:19:33.839Z,41.49
2019-03-22T11:20:33.834Z,41.33
2019-03-22T11:21:33.827Z,41.68
2019-03-22T11:22:33.822Z,41.43
2019-03-22T11:23:33.818Z,41.50
2019-03-22T11:24:33.807Z,41.23
2019-03-22T11:25:33.802Z,41.27
2019-03-22T11:26:33.795Z,41.20
2019-03-22T11:27:33.789Z,41.68
2019-03-22T11:28:33.786Z,43.21
2019-03-22T11:29:33.777Z,41.65
2019-03-22T11:30:33.770Z,41.64
2019-03-22T11:31:39.910Z,42.90
2019-03-22T11:34:01.481Z,41.42
2019-03-22T11:35:01.477Z,42.34
2019-03-22T11:36:01.471Z,41.59
2019-03-22T11:37:01.461Z,42.01
2019-03-22T11:38:01.454Z,41.55
2019-03-22T11:39:01.450Z,42.54
2019-03-22T11:40:01.444Z,41.50
2019-03-22T11:41:01.439Z,41.11
2019-03-22T11:42:01.430Z,41.13
2019-03-22T11:43:08.518Z,41.18
2019-03-22T11:45:29.136Z,42.63
2019-03-22T11:46:31.037Z,43.35
2019-03-22T11:47:29.122Z,41.38
2019-03-22T11:48:29.116Z,47.04
2019-03-22T11:49:29.133Z,44.15
2019-03-22T11:50:29.160Z,49.85
2019-03-22T11:51:29.121Z,45.87
2019-03-22T11:52:29.115Z,46.12
2019-03-22T11:53:29.108Z,55.42
2019-03-22T11:54:29.104Z,57.42
2019-03-22T11:55:29.096Z,56.10
2019-03-22T11:56:29.090Z,58.18
2019-03-22T11:57:29.081Z,51.26
2019-03-22T11:58:29.073Z,49.02
2019-03-22T11:59:29.090Z,48.25
2019-03-22T12:00:29.253Z,47.06
2019-03-22T12:01:29.076Z,48.54
2019-03-22T12:02:29.071Z,43.34
2019-03-22T12:03:29.065Z,44.70
2019-03-22T12:04:29.058Z,53.96
2019-03-22T12:05:29.052Z,52.09
2019-03-22T12:06:29.060Z,55.88
2019-03-22T12:07:29.052Z,44.99
2019-03-22T12:08:29.047Z,43.13
2019-03-22T12:09:29.040Z,52.02
2019-03-22T12:10:29.033Z,55.48
2019-03-22T12:11:29.031Z,56.46
2019-03-22T12:12:29.022Z,51.42
2019-03-22T12:13:29.015Z,54.45
2019-03-22T12:14:29.010Z,51.09
2019-03-22T12:15:29.004Z,54.93
2019-03-22T12:16:28.997Z,50.63
2019-03-22T12:17:28.992Z,55.28
2019-03-22T12:18:28.986Z,46.95
2019-03-22T12:19:28.976Z,46.34
2019-03-22T12:20:28.972Z,52.97
2019-03-22T12:21:28.966Z,45.81
2019-03-22T12:22:28.960Z,47.54
2019-03-22T12:23:28.951Z,58.74
2019-03-22T12:24:28.946Z,46.60
2019-03-22T12:25:28.940Z,59.59
2019-03-22T12:26:28.957Z,58.02
2019-03-22T12:27:36.298Z,62.03
2019-03-22T12:29:56.670Z,59.60
2019-03-22T12:30:56.659Z,54.87
2019-03-22T12:31:56.652Z,43.40
2019-03-22T12:32:56.650Z,49.08
2019-03-22T12:33:56.638Z,57.28
2019-03-22T12:34:56.635Z,51.16
2019-03-22T12:35:56.626Z,61.02
2019-03-22T12:36:56.618Z,51.08
2019-03-22T12:37:57.735Z,52.90
2019-03-22T12:38:56.609Z,44.99
2019-03-22T12:39:56.602Z,41.33
2019-03-22T12:40:56.595Z,41.07
2019-03-22T12:41:56.588Z,41.03
2019-03-22T12:42:56.803Z,41.05
2019-03-22T12:43:56.572Z,40.80
2019-03-22T12:44:56.573Z,41.49
2019-03-22T12:45:56.559Z,40.72
2019-03-22T12:46:56.557Z,40.71
2019-03-22T12:47:56.551Z,40.96
2019-03-22T12:48:56.541Z,41.97
2019-03-22T12:49:56.538Z,41.34
2019-03-22T12:50:56.536Z,41.39
2019-03-22T12:51:56.525Z,41.55
2019-03-22T12:52:56.515Z,41.37
2019-03-22T12:53:56.510Z,41.56
2019-03-22T12:54:56.503Z,41.37
2019-03-22T12:55:56.496Z,40.45
2019-03-22T12:56:56.488Z,42.94
2019-03-22T12:57:56.493Z,47.15
2019-03-22T12:58:56.475Z,43.98
2019-03-22T12:59:56.467Z,42.03
2019-03-22T13:00:56.465Z,42.17
2019-03-22T13:01:56.455Z,42.33
2019-03-22T13:02:56.449Z,41.99
2019-03-22T13:03:56.466Z,43.17
2019-03-22T13:04:56.458Z,42.47
2019-03-22T13:05:56.452Z,42.44
2019-03-22T13:06:56.445Z,44.13
2019-03-22T13:07:56.437Z,43.14
2019-03-22T13:08:56.450Z,43.90
2019-03-22T13:09:56.444Z,44.55
2019-03-22T13:10:56.438Z,42.47
2019-03-22T13:11:56.430Z,45.23